createdAt,value
2018-09-12T00:00:51.776Z,24.77
2018-09-12T00:05:54.787Z,24.69
2018-09-12T00:10:57.882Z,24.60
2018-09-12T00:16:02.993Z,24.50
2018-09-12T00:21:08.408Z,24.40
2018-09-12T00:26:12.800Z,24.35
2018-09-12T00:31:15.934Z,24.30
2018-09-12T00:36:18.986Z,24.30
2018-09-12T00:41:21.973Z,24.24
2018-09-12T00:46:25.067Z,24.17
2018-09-12T00:51:28.054Z,24.12
2018-09-12T00:56:34.464Z,24.08
2018-09-12T01:01:38.444Z,24.06
2018-09-12T01:06:42.369Z,24.06
2018-09-12T01:11:45.439Z,24.02
2018-09-12T01:16:53.087Z,23.95
2018-09-12T01:21:58.754Z,23.82
2018-09-12T01:27:05.712Z,23.78
2018-09-12T01:32:10.336Z,23.71
2018-09-12T01:37:14.235Z,23.63
2018-09-12T01:42:17.230Z,23.52
2018-09-12T01:47:20.294Z,23.43
2018-09-12T01:52:23.354Z,23.32
2018-09-12T01:57:26.381Z,23.19
2018-09-12T02:02:29.526Z,23.08
2018-09-12T02:07:38.021Z,22.98
2018-09-12T02:12:42.578Z,22.88
2018-09-12T02:17:45.686Z,22.81
2018-09-12T02:22:48.666Z,22.75
2018-09-12T02:27:51.657Z,22.83
2018-09-12T02:32:54.647Z,22.95
2018-09-12T02:37:57.686Z,22.98
2018-09-12T02:43:05.772Z,22.55
2018-09-12T02:48:09.955Z,22.76
2018-09-12T02:53:12.938Z,22.70
2018-09-12T02:58:15.940Z,22.61
2018-09-12T03:03:18.927Z,22.52
2018-09-12T03:08:22.010Z,22.45
2018-09-12T03:13:25.042Z,22.35
2018-09-12T03:18:32.709Z,22.30
2018-09-12T03:23:38.113Z,22.28
2018-09-12T03:28:42.723Z,22.28
2018-09-12T03:33:45.807Z,22.31
2018-09-12T03:38:48.814Z,22.37
2018-09-12T03:43:51.838Z,22.43
2018-09-12T03:48:54.820Z,22.40
2018-09-12T03:53:58.965Z,22.33
2018-09-12T03:59:06.131Z,22.16
2018-09-12T04:04:11.197Z,22.02
2018-09-12T04:09:14.283Z,21.88
2018-09-12T04:14:17.284Z,21.94
2018-09-12T04:19:20.361Z,22.07
2018-09-12T04:24:23.459Z,22.17
2018-09-12T04:29:26.426Z,22.27
2018-09-12T04:34:31.434Z,22.32
2018-09-12T04:39:38.624Z,22.33
2018-09-12T04:44:46.743Z,22.35
2018-09-12T04:49:51.340Z,22.39
2018-09-12T04:54:54.375Z,22.37
2018-09-12T04:59:57.386Z,22.31
2018-09-12T05:05:00.774Z,22.29
2018-09-12T05:10:04.874Z,22.31
2018-09-12T05:15:07.918Z,22.32
2018-09-12T05:20:10.956Z,22.34
2018-09-12T05:25:14.068Z,22.38
2018-09-12T05:30:18.587Z,22.46
2018-09-12T05:35:23.053Z,22.57
2018-09-12T05:40:29.562Z,22.65
2018-09-12T05:45:34.988Z,22.70
2018-09-12T05:50:38.036Z,22.78
2018-09-12T05:55:41.074Z,22.82
2018-09-12T06:00:44.214Z,22.86
2018-09-12T06:05:47.233Z,22.92
2018-09-12T06:10:50.911Z,22.98
2018-09-12T06:15:56.989Z,23.08
2018-09-12T06:21:03.034Z,23.22
2018-09-12T06:26:07.390Z,23.31
2018-09-12T06:31:10.416Z,23.38
2018-09-12T06:36:13.455Z,23.45
2018-09-12T06:41:16.518Z,23.54
2018-09-12T06:46:19.621Z,23.69
2018-09-12T06:51:22.632Z,23.85
2018-09-12T06:56:31.052Z,23.92
2018-09-12T07:01:36.845Z,24.01
2018-09-12T07:06:39.962Z,24.04
2018-09-12T07:11:43.107Z,24.20
2018-09-12T07:16:46.380Z,24.22
2018-09-12T07:21:50.319Z,24.33
2018-09-12T07:26:54.988Z,24.48
2018-09-12T07:32:02.550Z,24.75
2018-09-12T07:37:05.858Z,24.95
2018-09-12T07:42:09.412Z,24.92
2018-09-12T07:47:12.467Z,25.08
2018-09-12T07:52:15.527Z,25.40
2018-09-12T07:57:20.096Z,25.33
2018-09-12T08:02:26.007Z,25.44
2018-09-12T08:07:31.317Z,25.28
2018-09-12T08:12:35.134Z,25.06
2018-09-12T08:17:38.213Z,25.20
2018-09-12T08:22:41.230Z,24.95
2018-09-12T08:27:44.413Z,24.85
2018-09-12T08:32:48.528Z,24.73
2018-09-12T08:37:53.246Z,25.27
2018-09-12T08:43:00.048Z,25.87
2018-09-12T08:48:03.878Z,25.65
2018-09-12T08:53:06.891Z,25.61
2018-09-12T08:58:09.917Z,25.57
2018-09-12T09:03:12.927Z,25.43
2018-09-12T09:08:15.962Z,25.37
2018-09-12T09:13:20.797Z,25.21
2018-09-12T09:18:26.797Z,25.02
2018-09-12T09:23:32.282Z,25.04
2018-09-12T09:28:36.976Z,24.84
2018-09-12T09:33:42.638Z,24.12
2018-09-12T09:38:45.949Z,23.75
2018-09-12T09:43:49.007Z,23.08
2018-09-12T09:48:52.030Z,22.30
2018-09-12T09:53:55.087Z,21.82
2018-09-12T09:58:58.101Z,21.46
2018-09-12T10:04:08.158Z,21.14
2018-09-12T10:09:17.518Z,20.99
2018-09-12T10:14:20.501Z,20.85
2018-09-12T10:19:23.574Z,20.71
2018-09-12T10:24:26.679Z,20.40
2018-09-12T10:29:30.032Z,20.48
2018-09-12T10:34:38.620Z,20.63
2018-09-12T10:39:42.872Z,21.08
2018-09-12T10:44:45.939Z,21.34
2018-09-12T10:49:49.001Z,22.05
2018-09-12T10:54:52.010Z,22.50
2018-09-12T10:59:55.036Z,22.72
2018-09-12T11:04:58.066Z,22.66
2018-09-12T11:10:05.736Z,22.12
2018-09-12T11:15:09.930Z,21.75
2018-09-12T11:20:13.710Z,21.59
2018-09-12T11:25:17.845Z,21.66
2018-09-12T11:30:21.844Z,21.85
2018-09-12T11:35:26.167Z,21.58
2018-09-12T11:40:30.386Z,21.19
2018-09-12T11:45:36.670Z,21.28
2018-09-12T11:50:39.870Z,21.38
2018-09-12T11:55:42.899Z,21.07
2018-09-12T12:00:47.077Z,20.58
2018-09-12T12:05:50.598Z,20.55
2018-09-12T12:10:54.265Z,20.46
2018-09-12T12:15:58.376Z,20.24
2018-09-12T12:21:03.938Z,20.27
2018-09-12T12:26:07.754Z,19.84
2018-09-12T12:31:11.495Z,19.26
2018-09-12T12:36:15.551Z,19.17
2018-09-12T12:41:19.601Z,19.20
2018-09-12T12:46:24.153Z,19.10
2018-09-12T12:51:27.267Z,18.78
2018-09-12T12:56:30.292Z,18.25
2018-09-12T13:01:34.002Z,18.06
2018-09-12T13:06:38.433Z,18.18
2018-09-12T13:11:44.000Z,18.32
2018-09-12T13:16:50.455Z,18.47
2018-09-12T13:21:54.202Z,18.40
2018-09-12T13:26:57.531Z,18.29
2018-09-12T13:32:00.636Z,18.27
2018-09-12T13:37:03.722Z,18.40
2018-09-12T13:42:06.828Z,18.74
2018-09-12T13:47:09.803Z,18.54
2018-09-12T13:52:17.501Z,18.59
2018-09-12T13:57:21.336Z,18.74
2018-09-12T14:02:26.071Z,18.86
2018-09-12T14:07:29.197Z,18.90
2018-09-12T14:12:32.305Z,18.98
2018-09-12T14:17:35.483Z,18.92
2018-09-12T14:22:38.637Z,19.09
2018-09-12T14:27:42.036Z,19.29
2018-09-12T14:32:45.438Z,19.43
2018-09-12T14:37:50.805Z,19.71
2018-09-12T14:42:54.718Z,20.01
2018-09-12T14:47:57.965Z,19.96
2018-09-12T14:53:01.512Z,20.00
2018-09-12T14:58:04.717Z,19.86
2018-09-12T15:03:07.765Z,19.95
2018-09-12T15:08:10.828Z,19.78
2018-09-12T15:13:17.925Z,19.62
2018-09-12T15:18:24.076Z,19.79
2018-09-12T15:23:27.163Z,19.80
2018-09-12T15:28:30.207Z,19.87
2018-09-12T15:33:33.250Z,19.85
2018-09-12T15:38:36.382Z,19.86
2018-09-12T15:43:39.522Z,19.91
2018-09-12T15:48:43.995Z,20.22
2018-09-12T15:53:49.540Z,20.35
2018-09-12T15:58:54.364Z,20.27
2018-09-12T16:03:57.715Z,19.95
2018-09-12T16:09:01.764Z,19.59
2018-09-12T16:14:07.538Z,19.35
2018-09-12T16:19:11.877Z,19.30
2018-09-12T16:24:19.145Z,19.27
2018-09-12T16:29:23.508Z,19.23
2018-09-12T16:34:28.106Z,19.14
2018-09-12T16:39:31.299Z,19.13
2018-09-12T16:44:37.450Z,19.19
2018-09-12T16:49:43.118Z,19.22
2018-09-12T16:54:46.206Z,19.28
2018-09-12T16:59:49.307Z,19.30
2018-09-12T17:04:52.688Z,19.17
2018-09-12T17:09:57.028Z,19.14
2018-09-12T17:15:00.762Z,19.20
2018-09-12T17:20:05.361Z,19.23
2018-09-12T17:25:13.391Z,19.18
2018-09-12T17:30:16.457Z,19.13
2018-09-12T17:35:19.497Z,19.17
2018-09-12T17:40:23.658Z,19.20
2018-09-12T17:45:26.769Z,19.20
2018-09-12T17:50:30.253Z,19.15
2018-09-12T17:55:35.848Z,19.17
2018-09-12T18:00:42.087Z,19.14
2018-09-12T18:05:46.464Z,19.03
2018-09-12T18:10:49.800Z,18.92
2018-09-12T18:15:52.862Z,18.98
2018-09-12T18:20:56.139Z,19.07
2018-09-12T18:25:59.193Z,19.06
2018-09-12T18:31:05.509Z,18.59
2018-09-12T18:36:11.207Z,18.29
2018-09-12T18:41:15.593Z,18.00
2018-09-12T18:46:18.599Z,17.90
2018-09-12T18:51:21.707Z,18.00
2018-09-12T18:56:24.767Z,18.05
2018-09-12T19:01:27.810Z,18.06
2018-09-12T19:06:32.046Z,17.91
2018-09-12T19:11:37.533Z,17.87
2018-09-12T19:16:42.644Z,17.82
2018-09-12T19:21:47.671Z,17.78
2018-09-12T19:26:51.009Z,17.59
2018-09-12T19:31:54.139Z,17.44
2018-09-12T19:36:57.674Z,17.09
2018-09-12T19:42:02.686Z,16.90
2018-09-12T19:47:08.834Z,16.90
2018-09-12T19:52:12.990Z,16.75
2018-09-12T19:57:17.930Z,16.85
2018-09-12T20:02:26.787Z,17.01
2018-09-12T20:07:31.334Z,17.28
2018-09-12T20:12:36.598Z,17.52
2018-09-12T20:17:41.281Z,17.60
2018-09-12T20:22:46.842Z,17.47
2018-09-12T20:27:51.379Z,17.56
2018-09-12T20:32:56.038Z,17.61
2018-09-12T20:37:59.151Z,17.61
2018-09-12T20:43:02.719Z,17.72
2018-09-12T20:48:08.420Z,17.79
2018-09-12T20:53:15.174Z,17.72
2018-09-12T20:58:19.407Z,17.69
2018-09-12T21:03:22.439Z,17.80
2018-09-12T21:08:25.474Z,18.00
2018-09-12T21:13:28.519Z,18.22
2018-09-12T21:18:31.562Z,18.29
2018-09-12T21:23:41.936Z,18.38
2018-09-12T21:28:46.726Z,18.48
2018-09-12T21:33:49.901Z,18.54
2018-09-12T21:38:53.249Z,18.57
2018-09-12T21:43:56.272Z,18.59
2018-09-12T21:48:59.346Z,18.63
2018-09-12T21:54:02.349Z,18.64
2018-09-12T21:59:10.148Z,18.46
2018-09-12T22:04:13.931Z,18.24
2018-09-12T22:09:19.758Z,18.39
2018-09-12T22:14:22.797Z,18.55
2018-09-12T22:19:25.815Z,18.62
2018-09-12T22:24:28.989Z,18.67
2018-09-12T22:29:33.569Z,18.70
2018-09-12T22:34:40.243Z,18.66
2018-09-12T22:39:43.846Z,18.65
2018-09-12T22:44:46.879Z,18.47
2018-09-12T22:49:49.937Z,18.47
2018-09-12T22:54:52.934Z,18.58
2018-09-12T22:59:57.080Z,18.63
2018-09-12T23:05:00.677Z,18.68
2018-09-12T23:10:07.398Z,18.72
2018-09-12T23:15:13.979Z,18.74
2018-09-12T23:20:17.112Z,18.68
2018-09-12T23:25:20.196Z,18.48
2018-09-12T23:30:23.306Z,18.33
2018-09-12T23:35:27.184Z,18.28
2018-09-12T23:40:31.137Z,18.17
2018-09-12T23:45:35.759Z,18.18
2018-09-12T23:50:40.768Z,18.03
2018-09-12T23:55:44.901Z,17.91
